createdAt,value
2019-04-11T00:02:10.347Z,9.53
2019-04-11T00:04:37.992Z,9.43
2019-04-11T00:07:05.945Z,9.60
2019-04-11T00:09:34.518Z,9.23
2019-04-11T00:12:03.025Z,8.83
2019-04-11T00:14:31.653Z,8.57
2019-04-11T00:16:59.527Z,9.17
2019-04-11T00:19:27.390Z,9.07
2019-04-11T00:21:55.222Z,9.30
2019-04-11T00:24:23.074Z,8.90
2019-04-11T00:26:50.756Z,9.23
2019-04-11T00:29:18.493Z,8.90
2019-04-11T00:31:46.965Z,8.73
2019-04-11T00:34:15.432Z,8.93
2019-04-11T00:36:44.196Z,9.77
2019-04-11T00:39:13.226Z,9.13
2019-04-11T00:41:41.810Z,8.93
2019-04-11T00:44:10.431Z,8.97
2019-04-11T00:46:38.095Z,9.80
2019-04-11T00:49:06.222Z,9.33
2019-04-11T00:51:34.123Z,9.50
2019-04-11T00:54:02.573Z,9.47
2019-04-11T00:56:30.516Z,9.77
2019-04-11T00:58:58.370Z,9.77
2019-04-11T01:01:26.062Z,9.67
2019-04-11T01:03:53.742Z,9.93
2019-04-11T01:06:22.426Z,9.90
2019-04-11T01:08:50.139Z,9.37
2019-04-11T01:11:17.739Z,9.83
2019-04-11T01:13:50.944Z,9.53
2019-04-11T01:16:24.806Z,9.73
2019-04-11T01:18:52.355Z,9.73
2019-04-11T01:21:20.071Z,10.60
2019-04-11T01:23:47.817Z,9.70
2019-04-11T01:26:15.362Z,9.27
2019-04-11T01:28:42.974Z,9.70
2019-04-11T01:31:11.578Z,9.80
2019-04-11T01:33:40.091Z,9.00
2019-04-11T01:36:08.865Z,9.47
2019-04-11T01:38:41.772Z,9.67
2019-04-11T01:41:10.029Z,9.33
2019-04-11T01:43:37.818Z,9.90
2019-04-11T01:46:05.714Z,9.57
2019-04-11T01:48:47.730Z,8.83
2019-04-11T01:51:15.808Z,8.77
2019-04-11T01:53:43.578Z,10.17
2019-04-11T01:56:11.336Z,8.83
2019-04-11T01:58:38.905Z,9.53
2019-04-11T02:01:28.989Z,9.27
2019-04-11T02:04:05.813Z,9.27
2019-04-11T02:06:34.122Z,10.13
2019-04-11T02:09:01.959Z,9.73
2019-04-11T02:11:29.930Z,10.63
2019-04-11T02:14:09.843Z,9.23
2019-04-11T02:16:27.260Z,10.17
2019-04-11T02:18:56.071Z,8.97
2019-04-11T02:21:23.719Z,9.77
2019-04-11T02:23:59.911Z,10.63
2019-04-11T02:26:29.990Z,9.43
2019-04-11T02:28:57.526Z,9.57
2019-04-11T02:31:26.346Z,10.33
2019-04-11T02:33:55.256Z,10.13
2019-04-11T02:36:24.822Z,9.63
2019-04-11T02:38:55.168Z,11.30
2019-04-11T02:41:22.002Z,9.87
2019-04-11T02:43:50.934Z,9.53
2019-04-11T02:46:28.339Z,9.87
2019-04-11T02:48:49.694Z,10.50
2019-04-11T02:51:18.261Z,9.57
2019-04-11T02:53:47.274Z,10.23
2019-04-11T02:56:17.315Z,11.53
2019-04-11T02:58:46.383Z,9.53
2019-04-11T03:01:15.568Z,10.57
2019-04-11T03:03:43.387Z,9.73
2019-04-11T03:06:11.223Z,9.83
2019-04-11T03:08:40.836Z,10.07
2019-04-11T03:11:10.663Z,10.07
2019-04-11T03:13:38.506Z,10.07
2019-04-11T03:16:23.868Z,10.23
2019-04-11T03:18:57.394Z,9.13
2019-04-11T03:21:11.359Z,9.53
2019-04-11T03:23:35.525Z,10.97
2019-04-11T03:26:05.172Z,10.17
2019-04-11T03:28:34.022Z,10.33
2019-04-11T03:31:33.199Z,10.30
2019-04-11T03:37:08.845Z,10.50
2019-04-11T03:38:55.108Z,10.53
2019-04-11T03:41:22.088Z,10.23
2019-04-11T03:43:39.445Z,9.93
2019-04-11T03:46:19.429Z,10.53
2019-04-11T03:48:40.177Z,9.30
2019-04-11T03:50:59.571Z,10.27
2019-04-11T03:53:29.786Z,9.60
2019-04-11T03:55:57.118Z,9.73
2019-04-11T03:58:25.795Z,9.30
2019-04-11T04:00:57.433Z,10.57
2019-04-11T04:03:24.599Z,9.77
2019-04-11T04:05:54.902Z,10.47
2019-04-11T04:08:24.578Z,10.83
2019-04-11T04:11:27.147Z,10.53
2019-04-11T04:14:10.461Z,10.87
2019-04-11T04:16:59.314Z,11.53
2019-04-11T04:19:45.584Z,12.10
2019-04-11T04:22:24.573Z,12.30
2019-04-11T04:24:53.880Z,9.50
2019-04-11T04:27:25.187Z,10.90
2019-04-11T04:29:55.890Z,11.83
2019-04-11T04:32:22.989Z,10.43
2019-04-11T04:34:50.837Z,10.83
2019-04-11T04:37:22.388Z,11.03
2019-04-11T04:39:51.850Z,11.10
2019-04-11T04:42:30.800Z,11.57
2019-04-11T04:44:53.888Z,11.83
2019-04-11T04:47:30.431Z,11.40
2019-04-11T04:49:52.205Z,12.37
2019-04-11T04:52:20.810Z,11.47
2019-04-11T04:54:49.051Z,10.90
2019-04-11T04:57:18.202Z,10.77
2019-04-11T04:59:46.928Z,11.47
2019-04-11T05:02:14.998Z,12.07
2019-04-11T05:04:43.714Z,11.60
2019-04-11T05:07:11.678Z,12.23
2019-04-11T05:09:40.467Z,11.33
2019-04-11T05:12:09.872Z,11.00
2019-04-11T05:14:39.163Z,12.27
2019-04-11T05:17:07.131Z,12.03
2019-04-11T05:19:35.071Z,10.90
2019-04-11T05:22:02.747Z,11.93
2019-04-11T05:24:30.493Z,11.07
2019-04-11T05:26:58.070Z,10.83
2019-04-11T05:29:25.647Z,11.37
2019-04-11T05:31:53.199Z,11.60
2019-04-11T05:34:21.831Z,11.57
2019-04-11T05:36:49.885Z,11.77
2019-04-11T05:39:18.558Z,10.77
2019-04-11T05:41:47.118Z,11.17
2019-04-11T05:44:16.748Z,11.63
2019-04-11T05:46:52.352Z,12.10
2019-04-11T05:49:26.324Z,11.70
2019-04-11T05:51:58.769Z,11.17
2019-04-11T05:54:30.583Z,11.20
2019-04-11T05:57:01.146Z,10.70
2019-04-11T05:59:28.797Z,11.83
2019-04-11T06:02:09.302Z,12.77
2019-04-11T06:04:41.222Z,12.70
2019-04-11T06:07:18.865Z,12.63
2019-04-11T06:09:48.260Z,11.97
2019-04-11T06:12:34.107Z,11.73
2019-04-11T06:15:06.167Z,12.23
2019-04-11T06:17:34.330Z,11.90
2019-04-11T06:20:27.354Z,11.40
2019-04-11T06:23:13.362Z,11.77
2019-04-11T06:25:55.894Z,11.67
2019-04-11T06:28:27.659Z,11.87
2019-04-11T06:31:15.986Z,11.67
2019-04-11T06:33:49.066Z,12.70
2019-04-11T06:36:26.502Z,11.47
2019-04-11T06:38:58.763Z,12.40
2019-04-11T06:42:01.254Z,11.63
2019-04-11T06:44:48.017Z,12.20
2019-04-11T06:47:35.114Z,13.27
2019-04-11T06:50:09.518Z,12.40
2019-04-11T06:52:37.547Z,13.17
2019-04-11T06:55:25.103Z,12.60
2019-04-11T06:57:54.303Z,12.33
2019-04-11T07:00:23.080Z,12.30
2019-04-11T07:02:55.065Z,12.00
2019-04-11T07:05:24.684Z,12.27
2019-04-11T07:07:53.549Z,13.23
2019-04-11T07:10:26.549Z,13.03
2019-04-11T07:13:02.042Z,11.97
2019-04-11T07:15:35.683Z,11.80
2019-04-11T07:18:22.543Z,12.53
2019-04-11T07:21:15.659Z,13.53
2019-04-11T07:24:01.323Z,12.23
2019-04-11T07:26:33.132Z,12.30
2019-04-11T07:29:26.523Z,13.87
2019-04-11T07:32:13.531Z,12.80
2019-04-11T07:35:02.163Z,13.03
2019-04-11T07:37:51.098Z,13.53
2019-04-11T07:40:56.564Z,13.40
2019-04-11T07:43:27.300Z,13.57
2019-04-11T07:46:25.046Z,13.50
2019-04-11T07:48:55.347Z,14.57
2019-04-11T07:51:27.583Z,13.50
2019-04-11T07:53:56.836Z,14.07
2019-04-11T07:56:31.716Z,13.23
2019-04-11T07:59:02.921Z,13.70
2019-04-11T08:01:40.768Z,13.83
2019-04-11T08:04:40.868Z,13.43
2019-04-11T08:07:32.722Z,14.93
2019-04-11T08:10:05.889Z,13.30
2019-04-11T08:12:33.910Z,14.93
2019-04-11T08:15:19.843Z,13.77
2019-04-11T08:17:48.068Z,13.40
2019-04-11T08:20:33.831Z,13.97
2019-04-11T08:23:04.037Z,14.07
2019-04-11T08:25:51.535Z,13.77
2019-04-11T08:28:20.505Z,12.87
2019-04-11T08:31:07.791Z,14.50
2019-04-11T08:33:35.447Z,12.87
2019-04-11T08:36:34.388Z,14.30
2019-04-11T08:39:06.898Z,13.83
2019-04-11T08:41:56.985Z,14.03
2019-04-11T08:44:28.463Z,13.90
2019-04-11T08:47:01.429Z,15.30
2019-04-11T08:49:37.560Z,16.20
2019-04-11T08:52:25.003Z,14.27
2019-04-11T08:54:59.810Z,13.43
2019-04-11T08:57:42.736Z,15.80
2019-04-11T09:00:42.176Z,14.17
2019-04-11T09:03:15.546Z,13.40
2019-04-11T09:06:02.723Z,14.60
2019-04-11T09:08:52.301Z,13.33
2019-04-11T09:11:28.799Z,14.07
2019-04-11T09:14:22.225Z,15.93
2019-04-11T09:16:54.199Z,13.93
2019-04-11T09:19:41.339Z,14.10
2019-04-11T09:22:29.088Z,14.30
2019-04-11T09:25:23.283Z,14.57
2019-04-11T09:28:11.358Z,15.67
2019-04-11T09:31:01.577Z,14.60
2019-04-11T09:33:57.704Z,14.40
2019-04-11T09:37:00.990Z,15.10
2019-04-11T09:39:44.038Z,14.53
2019-04-11T09:42:36.806Z,15.37
2019-04-11T09:45:23.682Z,14.97
2019-04-11T09:48:15.329Z,14.97
2019-04-11T09:51:19.652Z,14.03
2019-04-11T09:53:52.792Z,15.67
2019-04-11T09:56:39.587Z,14.77
2019-04-11T09:59:12.272Z,14.00
2019-04-11T10:01:58.373Z,15.57
2019-04-11T10:04:27.620Z,15.60
2019-04-11T10:07:11.197Z,15.30
2019-04-11T10:09:56.872Z,14.90
2019-04-11T10:12:44.497Z,15.63
2019-04-11T10:16:05.869Z,15.00
2019-04-11T10:19:00.221Z,16.13
2019-04-11T10:21:28.986Z,16.60
2019-04-11T10:24:22.454Z,17.20
2019-04-11T10:26:56.278Z,15.20
2019-04-11T10:29:42.307Z,15.40
2019-04-11T10:32:10.752Z,15.73
2019-04-11T10:35:10.227Z,16.50
2019-04-11T10:37:40.144Z,15.37
2019-04-11T10:40:42.319Z,17.03
2019-04-11T10:43:09.952Z,17.30
2019-04-11T10:46:07.145Z,16.90
2019-04-11T10:48:47.427Z,17.30
2019-04-11T10:51:41.281Z,17.03
2019-04-11T10:54:11.393Z,16.53
2019-04-11T10:56:46.041Z,17.80
2019-04-11T10:59:13.683Z,17.43
2019-04-11T11:02:10.595Z,17.80
2019-04-11T11:04:41.319Z,16.87
2019-04-11T11:07:12.973Z,15.90
2019-04-11T11:09:47.736Z,16.23
2019-04-11T11:12:23.691Z,17.33
2019-04-11T11:15:19.946Z,17.33
2019-04-11T11:18:33.354Z,18.13
2019-04-11T11:21:06.030Z,17.37
2019-04-11T11:23:52.551Z,19.20
2019-04-11T11:26:27.675Z,17.10
2019-04-11T11:29:15.449Z,16.70
2019-04-11T11:32:09.137Z,17.77
2019-04-11T11:34:49.247Z,18.13
2019-04-11T11:37:37.477Z,16.63
2019-04-11T11:40:24.029Z,25.43
2019-04-11T11:43:21.134Z,18.00
2019-04-11T11:45:58.917Z,18.70
2019-04-11T11:48:41.708Z,17.97
2019-04-11T11:51:37.963Z,19.03
2019-04-11T11:54:24.047Z,18.73
2019-04-11T11:56:54.047Z,17.73
2019-04-11T11:59:34.371Z,18.80
2019-04-11T12:02:15.674Z,20.00
2019-04-11T12:05:11.267Z,20.90
2019-04-11T12:07:51.462Z,24.67
2019-04-11T12:10:39.523Z,19.50
2019-04-11T12:13:32.799Z,19.33
2019-04-11T12:16:30.041Z,18.80
2019-04-11T12:19:16.303Z,18.77
2019-04-11T12:21:44.682Z,19.37
2019-04-11T12:24:20.523Z,21.10
2019-04-11T12:27:13.543Z,20.80
2019-04-11T12:29:50.579Z,17.63
2019-04-11T12:32:22.219Z,19.23
2019-04-11T12:35:02.263Z,19.23
2019-04-11T12:37:35.774Z,20.20
2019-04-11T12:40:38.875Z,20.87
2019-04-11T12:43:07.253Z,19.53
2019-04-11T12:45:54.298Z,19.40
2019-04-11T12:48:24.712Z,19.57
2019-04-11T12:51:10.705Z,20.60
2019-04-11T12:53:38.390Z,19.13
2019-04-11T12:56:24.114Z,19.60
2019-04-11T12:59:13.613Z,18.60
2019-04-11T13:02:09.501Z,19.27
2019-04-11T13:04:46.433Z,19.27
2019-04-11T13:07:33.553Z,20.10
2019-04-11T13:10:30.049Z,20.17
2019-04-11T13:13:17.156Z,20.43
2019-04-11T13:15:50.849Z,20.27
2019-04-11T13:18:52.937Z,20.37
2019-04-11T13:21:24.373Z,20.67
2019-04-11T13:24:11.636Z,21.60
2019-04-11T13:27:04.647Z,19.83
2019-04-11T13:30:03.697Z,19.53
2019-04-11T13:33:07.108Z,20.13
2019-04-11T13:35:54.322Z,19.47
2019-04-11T13:38:33.406Z,19.97
2019-04-11T13:41:20.702Z,20.57
2019-04-11T13:44:06.430Z,20.30
2019-04-11T13:46:53.748Z,19.70
2019-04-11T13:49:50.053Z,20.33
2019-04-11T13:52:37.269Z,19.37
2019-04-11T13:55:23.368Z,20.90
2019-04-11T13:58:10.581Z,20.83
2019-04-11T14:00:48.800Z,20.20
2019-04-11T14:03:48.370Z,18.57
2019-04-11T14:06:21.649Z,20.13
2019-04-11T14:09:08.847Z,21.40
2019-04-11T14:11:40.290Z,19.77
2019-04-11T14:14:26.577Z,20.93
2019-04-11T14:17:22.438Z,20.07
2019-04-11T14:20:12.177Z,19.20
2019-04-11T14:22:59.349Z,20.73
2019-04-11T14:25:55.779Z,19.83
2019-04-11T14:28:24.569Z,20.57
2019-04-11T14:31:11.824Z,18.90
2019-04-11T14:33:41.735Z,20.03
2019-04-11T14:36:33.197Z,19.90
2019-04-11T14:38:57.366Z,19.13
2019-04-11T14:41:34.751Z,19.10
2019-04-11T14:44:03.353Z,21.03
2019-04-11T14:46:59.505Z,20.43
2019-04-11T14:49:27.275Z,19.80
2019-04-11T14:52:16.933Z,21.70
2019-04-11T14:54:49.182Z,19.13
2019-04-11T14:57:54.494Z,20.07
2019-04-11T15:00:34.146Z,18.73
2019-04-11T15:03:24.815Z,19.80
2019-04-11T15:06:26.858Z,18.77
2019-04-11T15:09:17.707Z,18.20
2019-04-11T15:11:54.791Z,20.03
2019-04-11T15:14:42.141Z,19.53
2019-04-11T15:17:18.272Z,17.80
2019-04-11T15:19:50.484Z,20.47
2019-04-11T15:22:38.056Z,19.70
2019-04-11T15:25:43.973Z,19.40
2019-04-11T15:28:22.872Z,18.80
2019-04-11T15:30:52.054Z,20.17
2019-04-11T15:33:27.951Z,20.43
2019-04-11T15:35:57.779Z,20.60
2019-04-11T15:38:43.073Z,21.53
2019-04-11T15:41:10.744Z,22.87
2019-04-11T15:44:01.623Z,19.93
2019-04-11T15:46:31.402Z,20.00
2019-04-11T15:49:29.834Z,19.87
2019-04-11T15:51:56.589Z,20.83
2019-04-11T15:54:43.689Z,18.13
2019-04-11T15:57:42.592Z,18.10
2019-04-11T16:00:29.677Z,18.97
2019-04-11T16:03:00.329Z,19.03
2019-04-11T16:05:47.536Z,18.63
2019-04-11T16:08:38.773Z,17.20
2019-04-11T16:11:33.939Z,19.20
2019-04-11T16:14:21.099Z,17.90
2019-04-11T16:17:13.824Z,19.40
2019-04-11T16:20:00.912Z,16.53
2019-04-11T16:22:46.901Z,18.97
2019-04-11T16:25:19.545Z,17.60
2019-04-11T16:28:07.935Z,18.00
2019-04-11T16:30:39.778Z,18.20
2019-04-11T16:33:33.186Z,19.07
2019-04-11T16:36:03.596Z,17.77
2019-04-11T16:38:35.062Z,17.80
2019-04-11T16:41:40.454Z,16.50
2019-04-11T16:44:11.079Z,17.00
2019-04-11T16:46:57.656Z,17.33
2019-04-11T16:49:25.958Z,15.43
2019-04-11T16:51:54.207Z,16.90
2019-04-11T16:54:21.851Z,17.13
2019-04-11T16:56:49.412Z,16.97
2019-04-11T16:59:17.748Z,15.90
2019-04-11T17:01:46.436Z,16.77
2019-04-11T17:04:13.993Z,16.57
2019-04-11T17:07:10.284Z,16.80
2019-04-11T17:09:43.655Z,20.33
2019-04-11T17:12:11.297Z,17.30
2019-04-11T17:14:38.886Z,15.73
2019-04-11T17:17:14.995Z,17.23
2019-04-11T17:19:36.757Z,16.43
2019-04-11T17:22:04.417Z,16.93
2019-04-11T17:24:32.013Z,16.70
2019-04-11T17:26:59.643Z,16.93
2019-04-11T17:29:27.238Z,16.33
2019-04-11T17:31:56.138Z,15.37
2019-04-11T17:34:24.242Z,16.77
2019-04-11T17:36:51.870Z,15.67
2019-04-11T17:39:19.445Z,15.63
2019-04-11T17:41:47.030Z,15.90
2019-04-11T17:44:14.656Z,15.80
2019-04-11T17:46:42.247Z,16.97
2019-04-11T17:49:09.819Z,15.90
2019-04-11T17:51:37.623Z,16.40
2019-04-11T17:54:05.234Z,15.40
2019-04-11T17:56:32.844Z,15.93
2019-04-11T17:59:00.431Z,15.60
2019-04-11T18:01:28.061Z,15.87
2019-04-11T18:03:55.690Z,15.73
2019-04-11T18:06:23.298Z,16.20
2019-04-11T18:08:51.604Z,15.10
2019-04-11T18:11:26.228Z,14.43
2019-04-11T18:13:54.958Z,14.77
2019-04-11T18:16:24.712Z,14.10
2019-04-11T18:24:25.435Z,15.10
2019-04-11T18:26:53.024Z,15.87
2019-04-11T18:29:22.778Z,14.67
2019-04-11T18:31:50.322Z,13.47
2019-04-11T18:34:17.983Z,14.40
2019-04-11T18:36:45.791Z,14.47
2019-04-11T18:39:13.622Z,15.63
2019-04-11T18:41:41.232Z,13.90
2019-04-11T18:44:09.418Z,14.67
2019-04-11T18:46:37.000Z,13.00
2019-04-11T18:49:04.581Z,13.63
2019-04-11T18:51:32.412Z,14.70
2019-04-11T18:53:59.992Z,13.87
2019-04-11T18:56:27.586Z,12.83
2019-04-11T18:58:55.186Z,13.70
2019-04-11T19:01:22.874Z,12.87
2019-04-11T19:03:50.447Z,13.40
2019-04-11T19:06:27.442Z,13.33
2019-04-11T19:08:47.449Z,13.20
2019-04-11T19:11:15.785Z,12.37
2019-04-11T19:13:46.732Z,12.23
2019-04-11T19:16:13.789Z,12.47
2019-04-11T19:18:47.174Z,12.67
2019-04-11T19:21:12.017Z,12.07
2019-04-11T19:23:39.797Z,12.57
2019-04-11T19:26:07.300Z,12.67
2019-04-11T19:28:35.055Z,13.00
2019-04-11T19:31:02.630Z,13.47
2019-04-11T19:33:34.062Z,12.67
2019-04-11T19:35:59.675Z,12.33
2019-04-11T19:38:32.122Z,13.43
2019-04-11T19:40:59.706Z,13.63
2019-04-11T19:43:27.644Z,13.03
2019-04-11T19:45:55.258Z,12.70
2019-04-11T19:48:25.100Z,12.53
2019-04-11T19:50:52.213Z,13.03
2019-04-11T19:53:19.822Z,13.73
2019-04-11T19:56:12.783Z,12.70
2019-04-11T19:58:40.573Z,13.00
2019-04-11T20:01:08.143Z,12.57
2019-04-11T20:03:35.692Z,12.83
2019-04-11T20:06:03.380Z,17.07
2019-04-11T20:08:31.141Z,13.37
2019-04-11T20:11:01.062Z,13.30
2019-04-11T20:13:31.943Z,12.83
2019-04-11T20:15:57.655Z,12.63
2019-04-11T20:18:25.265Z,12.67
2019-04-11T20:20:52.814Z,13.07
2019-04-11T20:23:20.419Z,12.27
2019-04-11T20:25:49.857Z,11.93
2019-04-11T20:28:19.893Z,12.20
2019-04-11T20:30:46.817Z,11.20
2019-04-11T20:33:26.363Z,12.23
2019-04-11T20:35:43.814Z,12.37
2019-04-11T20:38:15.846Z,12.57
2019-04-11T20:41:53.477Z,12.00
2019-04-11T20:48:12.940Z,11.47
2019-04-11T20:56:42.345Z,10.63
2019-04-11T20:59:10.998Z,11.70
2019-04-11T21:02:09.571Z,12.33
2019-04-11T21:04:37.462Z,11.73
2019-04-11T21:07:05.086Z,11.27
2019-04-11T21:09:33.244Z,12.37
2019-04-11T21:12:01.541Z,11.83
2019-04-11T21:14:29.143Z,11.70
2019-04-11T21:16:56.727Z,11.50
2019-04-11T21:19:24.283Z,10.40
2019-04-11T21:21:53.350Z,10.47
2019-04-11T21:24:21.506Z,11.47
2019-04-11T21:26:49.064Z,12.20
2019-04-11T21:29:16.670Z,11.50
2019-04-11T21:31:44.448Z,11.80
2019-04-11T21:34:12.153Z,10.97
2019-04-11T21:36:39.732Z,11.63
2019-04-11T21:39:13.722Z,10.03
2019-04-11T21:41:41.284Z,11.57
2019-04-11T21:44:09.198Z,10.90
2019-04-11T21:46:38.448Z,11.00
2019-04-11T21:49:06.957Z,10.37
2019-04-11T21:51:34.605Z,10.60
2019-04-11T21:54:02.181Z,10.97
2019-04-11T21:56:29.918Z,10.70
2019-04-11T21:58:57.501Z,11.60
2019-04-11T22:01:25.459Z,10.20
2019-04-11T22:03:57.055Z,11.13
2019-04-11T22:06:22.382Z,9.67
2019-04-11T22:08:49.930Z,10.13
2019-04-11T22:11:17.671Z,10.67
2019-04-11T22:13:45.219Z,10.10
2019-04-11T22:16:14.213Z,10.80
2019-04-11T22:18:44.365Z,9.20
2019-04-11T22:21:12.995Z,10.03
2019-04-11T22:23:48.737Z,9.90
2019-04-11T22:26:10.183Z,9.10
2019-04-11T22:28:37.735Z,9.50
2019-04-11T22:31:05.512Z,8.77
2019-04-11T22:33:42.797Z,9.33
2019-04-11T22:36:10.660Z,8.57
2019-04-11T22:38:38.182Z,8.83
2019-04-11T22:41:05.744Z,9.60
2019-04-11T22:43:33.356Z,8.30
2019-04-11T22:46:00.913Z,9.00
2019-04-11T22:48:28.461Z,8.80
2019-04-11T22:50:56.223Z,8.23
2019-04-11T22:53:23.795Z,8.23
2019-04-11T22:55:51.820Z,7.70
2019-04-11T22:58:19.555Z,8.10
2019-04-11T23:00:47.105Z,7.73
2019-04-11T23:03:22.037Z,7.40
2019-04-11T23:05:49.625Z,8.00
2019-04-11T23:08:19.263Z,7.37
2019-04-11T23:10:47.370Z,7.53
2019-04-11T23:13:15.891Z,6.23
2019-04-11T23:15:44.463Z,7.27
2019-04-11T23:18:14.036Z,6.37
2019-04-11T23:20:44.236Z,6.33
2019-04-11T23:23:13.383Z,7.20
2019-04-11T23:25:41.190Z,6.20
2019-04-11T23:28:08.777Z,6.30
2019-04-11T23:30:36.535Z,7.33
2019-04-11T23:33:04.691Z,6.13
2019-04-11T23:35:32.259Z,5.87
2019-04-11T23:38:00.296Z,6.13
2019-04-11T23:40:27.869Z,6.00
2019-04-11T23:42:55.412Z,6.17
2019-04-11T23:45:25.705Z,6.10
2019-04-11T23:47:54.298Z,6.20
2019-04-11T23:50:24.958Z,6.17
2019-04-11T23:52:51.773Z,6.07
2019-04-11T23:55:19.329Z,6.47
2019-04-11T23:57:47.099Z,5.73
